Time;durP1;ratioP1;P1;durP2;ratioP2;P2;SDS_P1;SDS_P2;PMS_P1;PMS_P2;Temp;Humidity;BMP_temperature;BMP_pressure;BME280_temperature;BME280_humidity;BME280_pressure;Samples;Min_cycle;Max_cycle;Signal;HPM_P1;HPM_P2
2022/05/12 00:01:19;;;;;;;2.90;1.77;;;23.40;33.10;;;23.81;25.22;98421.38;4928360;28;113942;-91
2022/05/12 00:03:46;;;;;;;3.10;1.83;;;23.40;33.30;;;23.77;25.01;98414.94;4931033;28;123403;-92
2022/05/12 00:06:14;;;;;;;2.03;1.83;;;23.30;33.30;;;23.74;25.49;98422.19;4912309;28;123553;-91
2022/05/12 00:08:41;;;;;;;2.10;1.90;;;23.30;33.60;;;23.70;25.69;98421.41;4929688;28;114245;-90
2022/05/12 00:11:07;;;;;;;2.80;1.90;;;23.30;33.90;;;23.67;25.71;98418.56;4912781;28;113824;-91
2022/05/12 00:13:34;;;;;;;2.07;1.87;;;23.20;33.90;;;23.63;25.90;98412.97;4927486;28;121998;-91
2022/05/12 00:16:01;;;;;;;2.70;1.90;;;23.20;34.10;;;23.62;25.79;98428.28;4914125;28;123789;-90
2022/05/12 00:18:28;;;;;;;1.90;1.70;;;23.20;34.20;;;23.58;26.05;98421.84;4927867;28;114255;-89
2022/05/12 00:20:54;;;;;;;1.77;1.57;;;23.20;34.40;;;23.53;26.16;98428.69;4913132;28;113904;-90
2022/05/12 00:23:26;;;;;;;1.87;1.70;;;23.10;34.50;;;23.50;26.28;98425.91;4914649;28;124610;-90
2022/05/12 00:25:54;;;;;;;2.80;1.90;;;23.10;34.70;;;23.45;26.79;98429.94;4927647;28;123763;-90
2022/05/12 00:28:24;;;;;;;2.77;2.13;;;23.10;34.90;;;23.42;26.56;98430.75;4937351;28;114958;-90
2022/05/12 00:30:55;;;;;;;2.80;2.10;;;23.00;35.00;;;23.38;26.80;98427.97;4948814;28;114883;-90
2022/05/12 00:33:27;;;;;;;2.13;1.93;;;23.00;35.20;;;23.34;26.97;98441.25;4946789;28;124234;-90
2022/05/12 00:35:56;;;;;;;4.10;2.00;;;22.90;35.30;;;23.30;27.13;98436.84;4950118;28;123074;-90
2022/05/12 00:38:22;;;;;;;2.07;1.87;;;22.90;35.50;;;23.27;27.17;98432.03;4948940;28;113177;-89
2022/05/12 00:40:49;;;;;;;2.70;2.17;;;22.90;35.60;;;23.24;27.15;98444.94;4950022;28;113973;-91
2022/05/12 00:43:48;;;;;;;2.40;2.13;;;22.80;35.80;;;23.17;27.26;98444.94;4949237;28;124278;-90
2022/05/12 00:46:24;;;;;;;2.33;2.03;;;22.80;35.90;;;23.13;27.43;98450.59;4949728;28;123938;-90
2022/05/12 00:48:54;;;;;;;4.60;2.47;;;22.70;36.20;;;23.09;27.70;98446.97;4951948;28;113207;-90
2022/05/12 00:51:31;;;;;;;2.53;2.10;;;22.70;36.50;;;23.06;27.84;98455.44;4949659;28;114219;-91
2022/05/12 00:54:01;;;;;;;1.83;1.73;;;22.60;36.40;;;23.02;27.72;98449.78;4966919;28;123106;-90
2022/05/12 00:56:29;;;;;;;2.40;2.17;;;22.60;36.70;;;23.01;28.04;98458.66;5002416;28;123916;-89
2022/05/12 00:59:03;;;;;;;7.37;2.30;;;22.60;36.90;;;22.96;28.30;98453.38;4970946;28;113949;-89
2022/05/12 01:01:30;;;;;;;3.37;2.47;;;22.60;37.20;;;22.89;28.26;98460.66;4992842;28;114423;-89
2022/05/12 01:04:01;;;;;;;2.50;2.30;;;22.50;37.50;;;22.84;28.24;98461.06;4994352;28;123204;-89
2022/05/12 01:06:27;;;;;;;2.63;2.33;;;22.40;37.50;;;22.80;28.45;98465.88;5003520;28;123795;-90
2022/05/12 01:08:54;;;;;;;4.37;2.23;;;22.40;37.70;;;22.74;28.89;98467.47;4969295;28;114582;-91
2022/05/12 01:11:21;;;;;;;2.40;1.97;;;22.40;38.00;;;22.72;28.71;98469.88;4962501;28;113377;-91
2022/05/12 01:13:59;;;;;;;2.97;2.17;;;22.30;38.10;;;22.69;29.00;98460.22;4969931;28;124565;-90
2022/05/12 01:17:00;;;;;;;3.53;2.43;;;22.30;38.20;;;22.64;28.84;98463.44;4971088;28;123853;-91
2022/05/12 01:19:33;;;;;;;2.80;1.87;;;22.30;38.20;;;22.66;29.05;98472.31;4968026;28;115396;-89
2022/05/12 01:22:02;;;;;;;2.50;2.30;;;22.20;38.30;;;22.65;29.23;98469.91;4971848;28;114954;-90
2022/05/12 01:24:37;;;;;;;2.27;1.90;;;22.20;38.40;;;22.65;29.29;98479.16;4991194;28;124079;-90
2022/05/12 01:27:20;;;;;;;2.90;2.10;;;22.20;38.50;;;22.64;29.11;98471.09;4970238;28;123206;-90
2022/05/12 01:29:50;;;;;;;2.03;1.70;;;22.20;38.60;;;22.66;29.06;98477.13;4966233;28;114959;-91
2022/05/12 01:32:19;;;;;;;2.27;1.70;;;22.20;38.60;;;22.68;29.58;98477.56;4970506;28;113568;-90
2022/05/12 01:34:46;;;;;;;2.00;1.90;;;22.20;38.70;;;22.72;29.27;98486.78;4969174;28;124100;-91
2022/05/12 01:37:13;;;;;;;2.43;2.00;;;22.20;38.80;;;22.76;29.40;98489.63;4984557;28;123699;-90
2022/05/12 01:39:40;;;;;;;1.57;1.47;;;22.20;38.90;;;22.81;29.38;98490.03;4969183;28;114145;-90
2022/05/12 01:42:09;;;;;;;4.53;1.80;;;22.30;39.00;;;22.87;29.60;98494.03;4987915;28;113254;-90
2022/05/12 01:44:37;;;;;;;2.10;1.80;;;22.30;39.10;;;22.92;29.49;98502.09;4965399;28;124323;-91
2022/05/12 01:47:04;;;;;;;1.60;1.50;;;22.30;39.20;;;22.96;29.43;98507.75;4970134;28;122898;-90
2022/05/12 01:49:32;;;;;;;1.70;1.60;;;22.40;39.40;;;22.99;29.62;98512.56;4966184;28;114315;-89
2022/05/12 01:52:00;;;;;;;2.50;1.70;;;22.40;39.60;;;23.00;29.74;98517.03;4968778;28;114800;-91
2022/05/12 01:54:29;;;;;;;1.80;1.60;;;22.40;39.70;;;23.03;29.50;98518.22;4980186;28;123102;-90
2022/05/12 01:56:56;;;;;;;2.13;1.73;;;22.40;39.70;;;23.04;29.82;98528.28;4983835;28;122897;-89
2022/05/12 01:59:24;;;;;;;1.73;1.37;;;22.40;39.90;;;23.06;29.89;98534.34;4985448;28;112251;-91
2022/05/12 02:01:50;;;;;;;1.87;1.53;;;22.40;40.00;;;23.07;29.67;98536.72;4983346;28;113915;-91
2022/05/12 02:04:18;;;;;;;1.73;1.40;;;22.40;40.10;;;23.07;29.85;98541.56;4966997;28;124056;-91
2022/05/12 02:06:45;;;;;;;1.60;1.50;;;22.50;40.30;;;23.08;29.94;98537.56;4983822;28;123824;-90
2022/05/12 02:09:12;;;;;;;1.87;1.63;;;22.50;40.40;;;23.08;29.91;98534.75;4983365;28;115272;-90
2022/05/12 02:11:39;;;;;;;1.77;1.60;;;22.50;40.50;;;23.09;30.26;98536.34;4969355;28;113988;-90
2022/05/12 02:14:06;;;;;;;1.70;1.60;;;22.40;40.60;;;23.09;30.27;98541.97;4962215;28;123264;-90
2022/05/12 02:16:34;;;;;;;2.20;1.93;;;22.50;40.80;;;23.09;30.26;98548.41;4961867;28;123930;-90
2022/05/12 02:19:05;;;;;;;1.90;1.57;;;22.50;40.80;;;23.09;30.20;98553.25;4966999;28;114211;-90
2022/05/12 02:21:33;;;;;;;2.30;1.80;;;22.40;40.80;;;23.09;30.44;98547.63;4966961;28;114207;-91
2022/05/12 02:23:59;;;;;;;1.70;1.60;;;22.50;40.90;;;23.07;30.38;98559.28;4966683;28;123379;-90
2022/05/12 02:26:27;;;;;;;2.30;1.97;;;22.40;40.80;;;23.07;30.32;98550.81;4970934;28;123962;-90
2022/05/12 02:28:54;;;;;;;2.90;1.60;;;22.40;40.90;;;23.08;30.37;98560.09;4967074;28;113463;-92
2022/05/12 02:31:21;;;;;;;1.70;1.60;;;22.40;40.90;;;23.07;30.02;98552.84;4965899;28;113914;-91
2022/05/12 02:33:47;;;;;;;1.87;1.67;;;22.40;40.90;;;23.06;30.47;98562.50;4967735;28;124000;-91
2022/05/12 02:36:14;;;;;;;2.17;1.53;;;22.40;41.00;;;23.06;30.66;98568.16;4967441;28;123863;-89
2022/05/12 02:38:41;;;;;;;1.63;1.53;;;22.40;41.20;;;23.07;30.53;98578.19;5000174;28;114769;-90
2022/05/12 02:41:08;;;;;;;2.00;1.60;;;22.40;41.30;;;23.04;30.66;98579.00;4982338;28;113453;-90
2022/05/12 02:43:34;;;;;;;2.90;1.90;;;22.40;41.40;;;23.04;30.91;98579.00;4965480;28;124164;-92
2022/05/12 02:46:05;;;;;;;3.70;2.10;;;22.40;41.50;;;22.99;31.15;98576.59;4955864;28;123908;-91
2022/05/12 02:48:39;;;;;;;1.90;1.70;;;22.40;41.80;;;22.96;31.36;98581.00;4958989;28;113959;-90
2022/05/12 02:51:07;;;;;;;1.90;1.80;;;22.40;42.30;;;22.89;31.59;98581.78;4971583;28;114018;-91
2022/05/12 02:53:34;;;;;;;2.50;1.77;;;22.30;42.50;;;22.87;31.84;98583.41;4971949;28;123912;-90
2022/05/12 02:56:03;;;;;;;2.40;2.10;;;22.30;43.00;;;22.84;32.85;98587.03;4971309;28;123829;-91
2022/05/12 02:58:31;;;;;;;2.30;1.80;;;22.30;44.20;;;22.80;32.75;98592.63;4988764;28;114772;-90
2022/05/12 03:00:59;;;;;;;2.50;2.03;;;22.30;44.20;;;22.76;33.21;98591.84;4988116;28;115269;-90
2022/05/12 03:03:26;;;;;;;1.93;1.73;;;22.20;44.60;;;22.74;33.27;98596.25;4972752;28;123278;-88
2022/05/12 03:05:54;;;;;;;4.47;2.03;;;22.20;44.70;;;22.71;33.60;98595.03;4971284;28;123801;-90
2022/05/12 03:08:21;;;;;;;1.80;1.70;;;22.20;45.30;;;22.66;34.27;98595.44;4971661;28;114248;-90
2022/05/12 03:10:51;;;;;;;1.77;1.60;;;22.20;45.70;;;22.64;34.04;98607.06;5006342;28;113891;-90
2022/05/12 03:13:18;;;;;;;1.77;1.50;;;22.10;45.70;;;22.62;34.35;98612.31;4970997;28;124077;-90
2022/05/12 03:15:44;;;;;;;2.33;2.00;;;22.10;45.80;;;22.63;34.38;98613.13;4986299;28;123856;-92
2022/05/12 03:18:11;;;;;;;1.60;1.40;;;22.10;46.00;;;22.61;34.33;98618.34;5000934;28;114643;-92
2022/05/12 03:20:39;;;;;;;1.97;1.77;;;22.10;46.10;;;22.60;34.39;98620.34;4975051;28;113852;-91
2022/05/12 03:23:05;;;;;;;1.60;1.50;;;22.10;46.10;;;22.63;34.42;98618.75;4970991;28;123979;-91
2022/05/12 03:25:32;;;;;;;2.60;1.60;;;22.10;46.40;;;22.63;34.50;98613.13;4989646;28;123421;-90
2022/05/12 03:28:00;;;;;;;2.40;1.70;;;22.10;46.50;;;22.64;34.86;98623.16;4971846;28;114448;-92
2022/05/12 03:30:26;;;;;;;2.00;1.80;;;22.10;46.90;;;22.62;34.85;98626.41;4974322;28;113225;-91
2022/05/12 03:32:53;;;;;;;1.57;1.47;;;20.40;45.40;;;22.61;34.81;98623.97;4973666;28;124150;-89
2022/05/12 03:35:20;;;;;;;1.80;1.47;;;22.00;46.80;;;22.62;34.95;98623.59;4977353;28;124073;-91
2022/05/12 03:37:48;;;;;;;2.83;1.67;;;22.00;46.90;;;22.64;34.86;98626.78;4997696;28;114083;-90
2022/05/12 03:40:19;;;;;;;1.47;1.37;;;22.00;47.00;;;22.65;34.84;98630.44;4996262;28;114182;-90
2022/05/12 03:42:47;;;;;;;2.03;1.47;;;22.00;47.30;;;22.61;34.89;98633.22;4981227;28;124667;-90
2022/05/12 03:45:14;;;;;;;1.30;1.20;;;22.00;47.30;;;22.59;35.13;98635.63;5003591;28;123092;-89
2022/05/12 03:47:44;;;;;;;2.67;1.83;;;22.00;47.30;;;22.59;35.03;98640.44;4971060;28;115567;-91
2022/05/12 03:50:15;;;;;;;3.10;2.03;;;22.00;47.50;;;22.57;35.18;98631.59;4972099;28;113945;-90
2022/05/12 03:52:41;;;;;;;1.73;1.63;;;22.00;47.80;;;22.54;35.49;98641.66;4972775;28;124303;-91
2022/05/12 03:55:11;;;;;;;2.90;1.50;;;22.00;47.90;;;22.52;35.54;98646.06;4992231;28;122673;-91
2022/05/12 03:57:40;;;;;;;1.80;1.60;;;22.00;48.00;;;22.46;35.98;98649.28;4977180;28;97351;-91
2022/05/12 04:00:11;;;;;;;2.37;1.50;;;22.00;48.20;;;22.43;35.49;98652.88;4969513;28;114161;-89
2022/05/12 04:02:38;;;;;;;1.90;1.33;;;21.90;48.10;;;22.44;35.81;98662.94;4973143;28;122575;-90
2022/05/12 04:05:07;;;;;;;1.70;1.50;;;21.90;48.30;;;22.43;35.73;98666.97;4972858;28;123580;-90
2022/05/12 04:07:33;;;;;;;2.33;1.40;;;21.90;48.40;;;22.42;35.77;98670.97;4972245;28;113267;-90
2022/05/12 04:10:01;;;;;;;2.37;1.30;;;21.90;48.40;;;22.42;36.03;98670.97;4970693;28;114442;-90
2022/05/12 04:12:27;;;;;;;1.80;1.33;;;21.90;48.60;;;22.41;35.90;98669.38;4969156;28;124100;-89
2022/05/12 04:14:54;;;;;;;1.30;1.20;;;21.90;48.60;;;22.41;36.07;98677.81;4970128;28;123720;-91
2022/05/12 04:17:20;;;;;;;1.73;1.30;;;21.90;48.70;;;22.41;36.24;98686.25;4965232;28;114152;-90
2022/05/12 04:19:50;;;;;;;1.47;1.30;;;21.90;48.70;;;22.42;36.19;98693.47;4963342;28;114051;-89
2022/05/12 04:22:17;;;;;;;3.73;1.40;;;21.90;48.80;;;22.45;35.82;98689.88;4962894;28;123343;-91
2022/05/12 04:24:43;;;;;;;1.67;1.30;;;21.90;48.90;;;22.49;36.02;98704.00;4993779;28;123338;-92
2022/05/12 04:27:12;;;;;;;1.60;1.23;;;21.90;49.00;;;22.50;36.22;98695.13;4972991;28;113701;-91
2022/05/12 04:29:42;;;;;;;1.20;1.10;;;21.90;49.00;;;22.54;36.35;98706.44;4972266;28;112156;-89
2022/05/12 04:32:09;;;;;;;1.23;1.10;;;21.90;49.00;;;22.56;36.07;98708.84;4984323;28;124105;-88
2022/05/12 04:37:26;;;;;;;1.20;1.10;;;22.00;49.20;;;22.54;36.27;98711.22;4970251;28;115678;-89
2022/05/12 04:39:53;;;;;;;1.60;1.30;;;21.90;49.20;;;22.53;36.26;98723.72;4961180;28;115103;-89
2022/05/12 04:42:19;;;;;;;1.90;1.33;;;22.00;49.40;;;22.55;36.43;98719.28;4966101;28;124138;-89
2022/05/12 04:44:46;;;;;;;1.53;1.10;;;22.00;49.40;;;22.56;36.43;98720.09;4957974;28;123909;-91
2022/05/12 04:47:13;;;;;;;3.00;1.40;;;22.00;49.60;;;22.57;36.21;98728.16;4968299;28;113354;-91
2022/05/12 04:49:39;;;;;;;1.50;1.33;;;22.00;49.70;;;22.59;36.53;98724.94;4967696;28;113969;-90
2022/05/12 04:52:06;;;;;;;1.10;1.00;;;22.00;49.70;;;22.60;36.33;98738.63;4969343;28;124099;-91
2022/05/12 04:54:33;;;;;;;1.00;0.90;;;22.00;49.80;;;22.60;36.75;98737.84;4969166;28;123727;-89
2022/05/12 04:56:59;;;;;;;1.50;1.00;;;22.00;49.90;;;22.63;36.53;98742.66;4992494;28;114884;-89
2022/05/12 04:59:26;;;;;;;1.73;1.20;;;22.00;50.00;;;22.64;36.72;98745.06;4969854;28;113930;-90
2022/05/12 05:01:52;;;;;;;1.60;1.50;;;22.00;50.10;;;22.67;36.86;98749.13;4968390;28;124233;-90
2022/05/12 05:04:19;;;;;;;1.90;1.40;;;22.00;50.10;;;22.65;36.73;98763.59;4988101;28;122572;-90
2022/05/12 05:06:45;;;;;;;1.37;1.20;;;22.00;50.20;;;22.64;36.81;98755.53;4949467;28;115065;-92
2022/05/12 05:09:12;;;;;;;2.03;1.10;;;22.00;50.20;;;22.63;36.97;98754.75;4958378;28;111945;-91
2022/05/12 05:11:39;;;;;;;1.67;1.33;;;22.00;50.40;;;22.63;37.11;98774.44;4961518;28;123102;-91
2022/05/12 05:14:06;;;;;;;1.50;1.10;;;22.00;50.50;;;22.64;36.96;98772.44;4950972;28;124281;-92
2022/05/12 05:16:32;;;;;;;2.13;1.30;;;22.00;50.60;;;22.64;37.14;98775.25;4984529;28;114572;-90
2022/05/12 05:18:59;;;;;;;2.60;1.37;;;22.00;50.70;;;22.60;37.48;98771.63;4954885;28;113749;-92
2022/05/12 05:21:25;;;;;;;1.80;1.33;;;22.00;50.90;;;22.57;37.34;98778.03;4958741;28;124119;-90
2022/05/12 05:23:52;;;;;;;1.77;1.23;;;22.00;51.00;;;22.57;37.69;98778.03;4965876;28;124031;-89
2022/05/12 05:26:19;;;;;;;2.17;1.40;;;22.00;51.30;;;22.54;37.74;98787.25;4983161;28;114601;-90
2022/05/12 05:28:45;;;;;;;6.30;1.50;;;22.00;51.30;;;22.56;38.06;98788.47;4952855;28;115146;-92
2022/05/12 05:31:12;;;;;;;1.67;1.40;;;22.00;51.60;;;22.55;37.85;98792.50;4982159;28;122677;-89
2022/05/12 05:33:39;;;;;;;2.10;1.50;;;22.00;51.80;;;22.54;37.86;98790.06;4981604;28;123825;-87
2022/05/12 05:36:05;;;;;;;2.67;1.60;;;22.00;51.80;;;22.55;37.87;98797.34;4953945;28;113652;-86
2022/05/12 05:38:32;;;;;;;1.70;1.33;;;22.00;52.00;;;22.52;38.11;98813.00;4955447;28;113472;-88
2022/05/12 05:40:59;;;;;;;3.37;1.60;;;22.00;52.00;;;22.52;38.11;98812.22;4956620;28;123007;-85
2022/05/12 05:43:26;;;;;;;1.50;1.40;;;22.00;52.20;;;22.50;38.16;98823.84;4946962;28;123523;-85
2022/05/12 05:45:53;;;;;;;1.87;1.67;;;22.00;52.30;;;22.47;38.55;98819.81;4984512;28;114283;-87
2022/05/12 05:48:20;;;;;;;1.57;1.30;;;22.00;52.50;;;22.46;38.35;98823.84;4948424;28;113800;-86
2022/05/12 05:53:38;;;;;;;2.40;1.60;;;21.90;52.80;;;22.45;38.79;98841.13;4963083;28;124768;-87
2022/05/12 05:56:15;;;;;;;2.73;1.57;;;21.90;53.30;;;22.39;38.95;98840.66;4950280;28;114538;-87
2022/05/12 05:58:43;;;;;;;2.00;1.43;;;21.90;54.00;;;22.37;39.12;98845.88;4957413;28;113197;-86
2022/05/12 06:01:10;;;;;;;2.50;1.60;;;21.90;53.60;;;22.36;39.20;98840.66;4980782;28;124527;-87
2022/05/12 06:03:37;;;;;;;2.90;1.70;;;21.90;53.70;;;22.33;39.59;98852.69;4958463;28;124043;-86
2022/05/12 06:06:04;;;;;;;1.90;1.67;;;21.80;53.90;;;22.27;39.95;98849.41;4968269;28;114492;-85
2022/05/12 06:08:31;;;;;;;1.90;1.80;;;21.80;54.20;;;22.22;39.72;98847.00;4986295;28;112590;-86
2022/05/12 06:11:03;;;;;;;1.50;1.40;;;21.80;54.20;;;22.23;39.85;98855.03;4967873;28;124236;-86
2022/05/12 06:13:30;;;;;;;2.63;1.60;;;21.70;54.20;;;22.30;39.72;98865.56;4989663;28;124401;-84
2022/05/12 06:15:57;;;;;;;1.60;1.40;;;21.80;54.40;;;22.34;39.84;98857.94;4961990;28;115042;-85
2022/05/12 06:18:24;;;;;;;1.80;1.40;;;21.80;54.80;;;22.37;39.83;98865.59;4967698;28;116235;-85
2022/05/12 06:20:50;;;;;;;1.77;1.23;;;21.80;54.80;;;22.41;39.65;98857.19;4967413;28;124067;-85
2022/05/12 06:23:17;;;;;;;2.17;1.53;;;21.90;54.80;;;22.46;39.66;98866.06;4983172;28;123916;-84
2022/05/12 06:25:44;;;;;;;2.13;1.40;;;21.90;54.90;;;22.48;39.78;98865.66;4969045;28;113152;-84
2022/05/12 06:28:11;;;;;;;5.30;1.50;;;21.90;54.80;;;22.52;40.03;98862.91;4965778;28;113972;-85
2022/05/12 06:30:39;;;;;;;2.90;1.60;;;22.00;54.90;;;22.56;40.07;98863.72;4959276;28;124180;-82
2022/05/12 06:33:06;;;;;;;1.83;1.40;;;22.00;54.90;;;22.61;39.80;98874.63;4966420;28;123803;-84
2022/05/12 06:35:33;;;;;;;2.00;1.80;;;22.00;55.00;;;22.60;39.68;98879.44;4984793;28;114622;-84
2022/05/12 06:38:00;;;;;;;2.20;1.73;;;22.00;55.00;;;22.63;39.97;98872.22;4970959;28;113995;-83
2022/05/12 06:40:26;;;;;;;1.90;1.63;;;22.10;55.10;;;22.67;39.83;98875.84;4965596;28;123461;-83
2022/05/12 06:42:53;;;;;;;2.63;1.80;;;22.10;55.20;;;22.66;39.91;98888.34;4965173;28;123230;-83
2022/05/12 06:45:21;;;;;;;1.50;1.40;;;22.10;55.40;;;22.66;39.99;98885.53;4955876;28;114401;-83
2022/05/12 06:47:52;;;;;;;2.43;1.60;;;22.10;55.20;;;22.67;40.27;98896.38;4969670;28;115503;-84
2022/05/12 06:50:28;;;;;;;2.37;1.60;;;22.10;55.60;;;22.68;39.84;98897.22;4967522;28;125040;-83
2022/05/12 06:52:55;;;;;;;3.00;1.83;;;22.10;55.60;;;22.62;40.04;98896.78;4966778;28;123823;-82
2022/05/12 06:55:24;;;;;;;2.90;1.90;;;22.10;55.70;;;22.58;40.13;98904.38;4968074;28;114098;-83
2022/05/12 06:57:50;;;;;;;1.50;1.40;;;22.10;55.80;;;22.55;40.35;98904.34;4965816;28;113879;-83
2022/05/12 07:00:18;;;;;;;1.50;1.40;;;22.10;55.70;;;22.56;40.41;98903.13;4966345;28;124817;-84
2022/05/12 07:02:47;;;;;;;1.57;1.40;;;22.10;55.80;;;22.59;40.36;98899.53;4980937;28;123791;-84
2022/05/12 07:05:17;;;;;;;2.10;1.57;;;22.10;55.80;;;22.62;40.45;98899.59;4964428;28;115154;-83
2022/05/12 07:07:44;;;;;;;1.50;1.30;;;22.10;55.90;;;22.68;40.23;98903.66;4967368;28;114859;-83
2022/05/12 07:10:12;;;;;;;2.33;1.60;;;22.10;56.20;;;22.72;40.14;98906.47;4982744;28;124735;-84
2022/05/12 07:12:41;;;;;;;3.10;1.30;;;22.10;56.10;;;22.77;40.50;98911.75;4965730;28;122656;-82
2022/05/12 07:15:09;;;;;;;1.30;1.20;;;22.20;56.60;;;22.76;40.43;98920.59;4968506;28;113400;-84
2022/05/12 07:17:42;;;;;;;1.40;1.30;;;22.20;56.50;;;22.77;40.63;98922.22;4949046;28;112448;-84
2022/05/12 07:28:34;;;;;;;2.47;1.20;;;21.50;56.10;;;22.70;40.83;98928.59;4967142;28;114583;-84
2022/05/12 07:31:01;;;;;;;6.53;1.63;;;22.20;56.80;;;22.71;40.96;98930.22;4958876;28;124118;-81
2022/05/12 07:33:34;;;;;;;2.13;1.93;;;22.20;57.10;;;22.71;40.64;98933.03;4978605;28;123908;-82
2022/05/12 07:36:04;;;;;;;1.50;1.10;;;22.20;57.00;;;22.71;40.64;98947.13;4984466;28;114363;-83
2022/05/12 07:38:32;;;;;;;1.50;1.40;;;22.20;57.00;;;22.71;41.02;98947.13;4996631;28;114180;-83
2022/05/12 07:41:00;;;;;;;6.10;1.40;;;22.10;57.10;;;22.67;40.81;98943.47;4971366;28;124414;-85
2022/05/12 07:43:29;;;;;;;5.00;1.57;;;22.20;57.10;;;22.67;40.70;98937.81;4970184;28;124065;-82
2022/05/12 07:45:56;;;;;;;1.40;1.30;;;22.20;57.10;;;22.67;40.75;98937.81;4955819;28;114378;-82
2022/05/12 07:48:22;;;;;;;1.23;1.13;;;22.10;57.00;;;22.70;40.95;98937.03;4985753;28;114360;-85
2022/05/12 07:50:49;;;;;;;1.87;1.40;;;22.20;57.20;;;22.70;41.34;98945.50;4971233;28;124341;-87
2022/05/12 07:53:15;;;;;;;1.70;1.40;;;22.20;57.60;;;22.71;41.22;98947.94;4969688;28;123727;-82
2022/05/12 07:55:41;;;;;;;3.23;1.63;;;22.20;57.50;;;22.74;41.14;98951.97;4966702;28;114224;-83
2022/05/12 07:58:10;;;;;;;3.57;1.40;;;22.20;57.60;;;22.74;40.96;98949.16;4966660;28;115206;-82
2022/05/12 08:00:37;;;;;;;1.50;1.30;;;22.20;57.60;;;22.76;41.10;98943.94;4969504;28;124110;-81
2022/05/12 08:03:04;;;;;;;1.33;1.23;;;22.20;57.60;;;22.79;41.11;98954.44;4984885;28;124257;-83
2022/05/12 08:05:30;;;;;;;2.90;1.57;;;22.20;57.60;;;22.84;41.11;98944.81;4988992;28;115505;-84
2022/05/12 08:07:57;;;;;;;4.90;1.67;;;22.20;57.80;;;22.86;40.86;98943.22;4956309;28;113888;-83
2022/05/12 08:10:25;;;;;;;2.77;1.40;;;22.30;57.80;;;22.88;41.23;98940.81;4968030;28;124751;-83
2022/05/12 08:12:51;;;;;;;3.30;1.67;;;22.30;58.00;;;22.93;41.31;98948.88;4984423;28;123554;-85
2022/05/12 08:15:18;;;;;;;2.47;1.70;;;22.30;58.00;;;23.02;41.26;98933.66;4968393;28;114670;-83
2022/05/12 08:17:45;;;;;;;2.90;1.73;;;22.40;58.20;;;23.06;40.93;98934.53;4966687;28;114660;-83
2022/05/12 08:20:12;;;;;;;2.03;1.70;;;22.40;58.00;;;23.10;41.00;98930.50;4969318;28;124239;-86
2022/05/12 08:22:38;;;;;;;2.73;1.67;;;22.50;58.10;;;23.12;41.01;98941.41;4972738;28;123817;-84
2022/05/12 08:25:08;;;;;;;2.23;1.40;;;22.50;58.10;;;23.13;41.00;98937.38;4971569;28;113624;-84
2022/05/12 08:27:38;;;;;;;1.90;1.50;;;22.50;58.00;;;23.15;40.76;98935.75;4972536;28;115063;-82
2022/05/12 08:30:09;;;;;;;1.90;1.70;;;22.60;58.00;;;23.15;41.04;98944.22;4971948;28;123313;-84
2022/05/12 08:32:36;;;;;;;2.93;1.63;;;22.60;58.00;;;23.19;40.99;98938.63;4957741;28;122298;-83
2022/05/12 08:35:04;;;;;;;5.33;1.83;;;22.60;58.00;;;23.22;41.04;98951.13;4986971;28;114498;-82
2022/05/12 08:37:31;;;;;;;2.63;1.57;;;22.60;58.30;;;23.26;40.88;98946.31;4988432;28;114528;-83
2022/05/12 08:39:58;;;;;;;1.70;1.60;;;22.70;58.20;;;23.28;40.77;98953.16;4968645;28;124502;-83
2022/05/12 08:42:37;;;;;;;2.47;1.67;;;22.70;58.10;;;23.32;40.45;98945.53;4998490;28;123063;-85
2022/05/12 08:45:07;;;;;;;2.73;1.97;;;22.70;58.00;;;23.35;40.74;98958.84;4968449;28;115193;-84
2022/05/12 08:47:43;;;;;;;2.07;1.87;;;22.80;58.10;;;23.38;40.65;98946.78;4971227;28;114626;-83
2022/05/12 08:50:20;;;;;;;3.70;1.80;;;22.80;58.10;;;23.37;41.00;98955.63;4972014;28;123637;-83
2022/05/12 08:52:55;;;;;;;1.70;1.60;;;22.80;58.10;;;23.34;40.95;98959.22;4968331;28;124139;-82
2022/05/12 08:55:46;;;;;;;2.30;1.73;;;22.80;57.90;;;23.31;40.96;98962.84;5000818;28;114351;-82
2022/05/12 08:58:34;;;;;;;2.00;1.80;;;22.80;58.00;;;23.32;40.83;98964.44;4968351;28;113988;-83
2022/05/12 09:01:58;;;;;;;5.40;1.93;;;22.80;58.00;;;23.28;40.87;98970.09;4951485;28;124077;-85
2022/05/12 09:04:47;;;;;;;3.67;2.33;;;22.80;58.00;;;23.32;40.83;98965.28;4969004;28;124284;-86
2022/05/12 09:07:28;;;;;;;2.93;2.13;;;22.80;58.00;;;23.40;40.59;98965.31;4981362;28;113164;-83
2022/05/12 09:10:12;;;;;;;2.70;2.10;;;22.80;57.90;;;23.44;40.89;98958.50;4981625;28;113557;-83
2022/05/12 09:13:10;;;;;;;2.00;1.90;;;22.90;58.10;;;23.48;40.61;98956.50;4981314;28;123404;-86
2022/05/12 09:15:41;;;;;;;3.43;2.23;;;23.00;58.00;;;23.54;40.65;98945.66;4959680;28;123851;-84
2022/05/12 09:18:24;;;;;;;3.23;2.10;;;23.00;58.10;;;23.59;40.60;98948.91;4958768;28;114667;-82
2022/05/12 09:20:50;;;;;;;2.20;2.00;;;23.10;58.00;;;23.66;40.46;98950.94;4971488;28;114113;-81
2022/05/12 09:23:17;;;;;;;3.70;2.57;;;23.10;57.90;;;23.66;40.33;98944.47;4968007;28;123293;-82
2022/05/12 09:25:48;;;;;;;3.23;2.20;;;23.10;57.80;;;23.64;40.37;98944.06;4968095;28;124395;-83
2022/05/12 09:28:18;;;;;;;3.40;2.87;;;23.10;57.60;;;23.64;40.21;98942.03;4941008;28;113620;-84
2022/05/12 09:30:46;;;;;;;3.80;2.20;;;23.10;57.70;;;23.68;40.42;98950.53;4954290;28;113399;-83
2022/05/12 09:33:34;;;;;;;2.60;2.40;;;23.10;57.70;;;23.74;39.93;98949.78;4967726;28;124185;-83
2022/05/12 09:36:07;;;;;;;3.10;2.07;;;23.20;57.70;;;23.80;40.10;98939.75;4966070;28;121934;-81
2022/05/12 09:38:44;;;;;;;4.40;2.40;;;23.30;57.60;;;23.85;39.96;98940.53;4966685;28;116176;-83
2022/05/12 09:41:22;;;;;;;3.70;2.87;;;23.30;57.60;;;23.91;39.71;98941.75;4967359;28;115076;-86
2022/05/12 09:43:54;;;;;;;3.90;2.80;;;23.40;57.50;;;23.96;39.77;98955.50;4967850;28;122964;-85
2022/05/12 09:46:29;;;;;;;2.87;2.57;;;23.40;57.30;;;24.03;39.51;98947.06;4957855;28;124095;-84
2022/05/12 09:49:21;;;;;;;3.70;2.13;;;23.50;57.20;;;24.10;39.66;98938.59;4984490;28;113447;-83
2022/05/12 09:51:48;;;;;;;2.77;2.30;;;23.60;57.20;;;24.21;39.26;98941.44;4962843;28;114033;-84
2022/05/12 09:54:16;;;;;;;2.67;2.37;;;23.60;57.10;;;24.31;39.44;98939.81;4970098;28;124102;-85
2022/05/12 09:56:55;;;;;;;2.20;1.80;;;23.70;57.10;;;24.38;39.33;98937.03;5000215;28;123770;-84
2022/05/12 09:59:27;;;;;;;4.73;2.03;;;23.80;57.30;;;24.41;39.23;98934.19;4982304;28;114163;-83
2022/05/12 10:07:53;;;;;;;2.83;1.90;;;23.80;57.30;;;24.42;39.52;98935.00;4966278;28;112136;-85
2022/05/12 10:08:26;;;;;;;8.80;2.53;;;23.90;57.20;;;24.35;39.50;98929.34;4952006;28;124818;-84
2022/05/12 10:11:01;;;;;;;2.13;1.93;;;23.90;57.40;;;24.36;39.88;98917.66;4955124;28;113611;-84
2022/05/12 10:13:46;;;;;;;2.60;2.10;;;23.90;57.60;;;24.38;39.65;98928.56;4957888;28;114135;-84
2022/05/12 10:16:19;;;;;;;3.20;2.00;;;23.90;57.60;;;24.41;39.73;98925.72;4967418;28;123807;-82
2022/05/12 10:18:54;;;;;;;2.20;1.97;;;23.90;57.50;;;24.48;39.48;98924.97;4958495;28;124282;-83
2022/05/12 10:21:39;;;;;;;1.90;1.60;;;23.90;57.40;;;24.54;39.40;98914.06;4956027;28;114469;-83
2022/05/12 10:24:35;;;;;;;2.07;1.87;;;24.00;57.20;;;24.62;39.00;98921.31;4984916;28;114188;-83
2022/05/12 10:27:32;;;;;;;3.40;2.00;;;24.00;57.10;;;24.66;39.15;98911.63;4962773;28;124244;-81
2022/05/12 10:30:45;;;;;;;1.70;1.60;;;24.10;57.10;;;24.68;38.97;98912.03;4978609;28;123402;-82
2022/05/12 10:33:25;;;;;;;2.47;2.17;;;24.20;56.90;;;24.75;39.07;98888.63;4982999;28;115164;-81
2022/05/12 10:36:23;;;;;;;2.93;1.93;;;24.20;57.00;;;24.82;39.01;98901.91;4986117;28;114408;-82
2022/05/12 10:39:07;;;;;;;3.23;2.30;;;24.30;56.90;;;24.87;38.63;98895.84;4966444;28;124062;-83
2022/05/12 10:42:24;;;;;;;2.33;2.07;;;24.20;56.90;;;24.89;38.58;98887.78;4967740;28;123287;-83
2022/05/12 10:45:12;;;;;;;5.40;2.20;;;24.30;56.50;;;24.94;38.33;98895.84;4969184;28;115541;-83